Seitenverwaltung

Live am Platz

Die Bilder unserer Webcams werden alle 5 Minuten aktualisiert.

Sonnenaufgang:

04:19 UTC / 06:19 Lokal

Sonnenuntergang:

18:24 UTC / 20:24 Lokal

METAR (22.04.2019 17:20 UTC):

EDNY 221520Z 05006KT 030V090 CAVOK 22/07 Q1003
VFR

TAF (22.04.2019 13:00 UTC):

TAF EDNY 221100Z 2212/2312 04010KT CAVOK PROB30 TEMPO 2212/2215 19005KT BECMG 2220/2222 VRB03KT TEMPO 2309/2312 24005KT

Alle Angaben unverbindlich und ohne Gewähr. Zeiten genähert.

Für den Verkehrslandeplatz Konstanz werden keine offiziellen Wetterinformationen ausgegeben. Daher werden zur Orientierung Daten des nahegelegenen Flughafens Friedrichshafen dargestellt.

Flugwetterdaten zur Verfügung gestellt von wippich.aero.